sensor_id;sensor_type;location;lat;lon;timestamp;P1;durP1;ratioP1;P2;durP2;ratioP2
53959;SDS011;39866;48.638;-2.020;2022-10-16T00:01:30;6.25;;;1.55;;
53959;SDS011;39866;48.638;-2.020;2022-10-16T00:03:56;7.15;;;1.40;;
53959;SDS011;39866;48.638;-2.020;2022-10-16T00:06:23;4.90;;;1.40;;
53959;SDS011;39866;48.638;-2.020;2022-10-16T00:08:50;7.43;;;1.73;;
53959;SDS011;39866;48.638;-2.020;2022-10-16T00:11:23;7.47;;;1.70;;
53959;SDS011;39866;48.638;-2.020;2022-10-16T00:13:58;7.20;;;1.63;;
53959;SDS011;39866;48.638;-2.020;2022-10-16T00:16:25;8.73;;;1.77;;
53959;SDS011;39866;48.638;-2.020;2022-10-16T00:18:51;8.32;;;1.80;;
53959;SDS011;39866;48.638;-2.020;2022-10-16T00:21:18;7.53;;;1.55;;
53959;SDS011;39866;48.638;-2.020;2022-10-16T00:23:45;7.97;;;1.80;;
53959;SDS011;39866;48.638;-2.020;2022-10-16T00:26:13;8.63;;;1.80;;
53959;SDS011;39866;48.638;-2.020;2022-10-16T00:28:40;13.32;;;2.00;;
53959;SDS011;39866;48.638;-2.020;2022-10-16T00:31:06;4.95;;;1.50;;
53959;SDS011;39866;48.638;-2.020;2022-10-16T00:33:36;9.57;;;1.85;;
53959;SDS011;39866;48.638;-2.020;2022-10-16T00:36:03;11.32;;;1.83;;
53959;SDS011;39866;48.638;-2.020;2022-10-16T00:38:30;7.60;;;1.85;;
53959;SDS011;39866;48.638;-2.020;2022-10-16T00:40:56;8.40;;;1.50;;
53959;SDS011;39866;48.638;-2.020;2022-10-16T00:46:20;8.95;;;2.33;;
53959;SDS011;39866;48.638;-2.020;2022-10-16T00:48:48;7.53;;;1.90;;
53959;SDS011;39866;48.638;-2.020;2022-10-16T00:54:12;9.52;;;2.13;;
53959;SDS011;39866;48.638;-2.020;2022-10-16T00:56:40;10.43;;;2.20;;
53959;SDS011;39866;48.638;-2.020;2022-10-16T00:59:08;7.30;;;2.13;;
53959;SDS011;39866;48.638;-2.020;2022-10-16T01:01:38;9.45;;;1.80;;
53959;SDS011;39866;48.638;-2.020;2022-10-16T01:04:04;5.55;;;1.83;;
53959;SDS011;39866;48.638;-2.020;2022-10-16T01:06:51;7.47;;;1.65;;
53959;SDS011;39866;48.638;-2.020;2022-10-16T01:09:33;9.35;;;1.90;;
53959;SDS011;39866;48.638;-2.020;2022-10-16T01:17:18;7.70;;;1.80;;
53959;SDS011;39866;48.638;-2.020;2022-10-16T01:25:30;8.15;;;1.77;;
53959;SDS011;39866;48.638;-2.020;2022-10-16T01:28:04;6.50;;;1.80;;
53959;SDS011;39866;48.638;-2.020;2022-10-16T01:30:34;12.73;;;2.25;;
53959;SDS011;39866;48.638;-2.020;2022-10-16T01:33:03;11.15;;;1.70;;
53959;SDS011;39866;48.638;-2.020;2022-10-16T01:35:39;8.02;;;1.75;;
53959;SDS011;39866;48.638;-2.020;2022-10-16T01:38:18;10.32;;;1.85;;
53959;SDS011;39866;48.638;-2.020;2022-10-16T01:41:12;8.82;;;2.03;;
53959;SDS011;39866;48.638;-2.020;2022-10-16T01:43:45;8.55;;;2.47;;
53959;SDS011;39866;48.638;-2.020;2022-10-16T01:46:15;16.42;;;2.75;;
53959;SDS011;39866;48.638;-2.020;2022-10-16T01:48:43;8.07;;;1.98;;
53959;SDS011;39866;48.638;-2.020;2022-10-16T01:51:11;11.40;;;1.70;;
53959;SDS011;39866;48.638;-2.020;2022-10-16T01:53:39;9.35;;;1.83;;
53959;SDS011;39866;48.638;-2.020;2022-10-16T01:56:07;8.68;;;1.90;;
53959;SDS011;39866;48.638;-2.020;2022-10-16T01:58:40;9.88;;;2.03;;
53959;SDS011;39866;48.638;-2.020;2022-10-16T02:01:10;13.88;;;2.20;;
53959;SDS011;39866;48.638;-2.020;2022-10-16T02:03:40;11.52;;;2.50;;
53959;SDS011;39866;48.638;-2.020;2022-10-16T02:06:08;10.48;;;2.10;;
53959;SDS011;39866;48.638;-2.020;2022-10-16T02:08:33;8.77;;;2.17;;
53959;SDS011;39866;48.638;-2.020;2022-10-16T02:11:00;6.72;;;1.98;;
53959;SDS011;39866;48.638;-2.020;2022-10-16T02:13:33;13.38;;;2.33;;
53959;SDS011;39866;48.638;-2.020;2022-10-16T02:16:01;10.85;;;2.45;;
53959;SDS011;39866;48.638;-2.020;2022-10-16T02:18:26;10.43;;;2.47;;
53959;SDS011;39866;48.638;-2.020;2022-10-16T02:21:09;11.90;;;2.30;;
53959;SDS011;39866;48.638;-2.020;2022-10-16T02:26:07;9.52;;;2.17;;
53959;SDS011;39866;48.638;-2.020;2022-10-16T02:28:40;8.85;;;1.80;;
53959;SDS011;39866;48.638;-2.020;2022-10-16T02:31:10;7.93;;;1.80;;
53959;SDS011;39866;48.638;-2.020;2022-10-16T02:33:38;6.53;;;1.85;;
53959;SDS011;39866;48.638;-2.020;2022-10-16T02:36:07;9.95;;;1.90;;
53959;SDS011;39866;48.638;-2.020;2022-10-16T02:38:32;10.15;;;2.00;;
53959;SDS011;39866;48.638;-2.020;2022-10-16T02:40:59;7.68;;;1.63;;
53959;SDS011;39866;48.638;-2.020;2022-10-16T02:43:24;9.73;;;2.13;;
53959;SDS011;39866;48.638;-2.020;2022-10-16T02:45:51;10.57;;;2.05;;
53959;SDS011;39866;48.638;-2.020;2022-10-16T02:48:16;10.13;;;1.92;;
53959;SDS011;39866;48.638;-2.020;2022-10-16T02:50:41;11.65;;;2.17;;
53959;SDS011;39866;48.638;-2.020;2022-10-16T02:53:07;11.18;;;2.10;;
53959;SDS011;39866;48.638;-2.020;2022-10-16T02:55:32;10.52;;;2.17;;
53959;SDS011;39866;48.638;-2.020;2022-10-16T02:57:58;10.50;;;2.00;;
53959;SDS011;39866;48.638;-2.020;2022-10-16T03:00:23;7.32;;;1.83;;
53959;SDS011;39866;48.638;-2.020;2022-10-16T03:02:49;6.65;;;1.80;;
53959;SDS011;39866;48.638;-2.020;2022-10-16T03:05:15;6.28;;;1.60;;
53959;SDS011;39866;48.638;-2.020;2022-10-16T03:07:40;4.32;;;1.50;;
53959;SDS011;39866;48.638;-2.020;2022-10-16T03:10:06;9.82;;;1.80;;
53959;SDS011;39866;48.638;-2.020;2022-10-16T03:12:32;8.15;;;1.80;;
53959;SDS011;39866;48.638;-2.020;2022-10-16T03:14:58;9.90;;;2.22;;
53959;SDS011;39866;48.638;-2.020;2022-10-16T03:17:24;6.22;;;1.85;;
53959;SDS011;39866;48.638;-2.020;2022-10-16T03:19:49;9.65;;;1.95;;
53959;SDS011;39866;48.638;-2.020;2022-10-16T03:22:15;10.48;;;2.00;;
53959;SDS011;39866;48.638;-2.020;2022-10-16T03:24:40;7.55;;;2.00;;
53959;SDS011;39866;48.638;-2.020;2022-10-16T03:27:06;6.35;;;1.80;;
53959;SDS011;39866;48.638;-2.020;2022-10-16T03:29:31;9.43;;;2.20;;
53959;SDS011;39866;48.638;-2.020;2022-10-16T03:31:57;10.10;;;1.92;;
53959;SDS011;39866;48.638;-2.020;2022-10-16T03:34:23;7.88;;;1.88;;
53959;SDS011;39866;48.638;-2.020;2022-10-16T03:36:49;7.80;;;1.70;;
53959;SDS011;39866;48.638;-2.020;2022-10-16T03:39:14;8.38;;;2.05;;
53959;SDS011;39866;48.638;-2.020;2022-10-16T03:41:40;8.85;;;1.90;;
53959;SDS011;39866;48.638;-2.020;2022-10-16T03:44:05;8.25;;;1.80;;
53959;SDS011;39866;48.638;-2.020;2022-10-16T03:46:30;10.25;;;1.88;;
53959;SDS011;39866;48.638;-2.020;2022-10-16T03:48:56;6.35;;;1.70;;
53959;SDS011;39866;48.638;-2.020;2022-10-16T03:51:21;8.18;;;2.03;;
53959;SDS011;39866;48.638;-2.020;2022-10-16T03:53:46;8.82;;;1.80;;
53959;SDS011;39866;48.638;-2.020;2022-10-16T03:56:12;7.65;;;1.73;;
53959;SDS011;39866;48.638;-2.020;2022-10-16T03:58:37;7.20;;;1.60;;
53959;SDS011;39866;48.638;-2.020;2022-10-16T04:01:03;8.73;;;1.80;;
53959;SDS011;39866;48.638;-2.020;2022-10-16T04:03:28;9.32;;;1.85;;
53959;SDS011;39866;48.638;-2.020;2022-10-16T04:05:54;9.20;;;2.03;;
53959;SDS011;39866;48.638;-2.020;2022-10-16T04:08:19;11.65;;;2.40;;
53959;SDS011;39866;48.638;-2.020;2022-10-16T04:10:44;9.20;;;1.70;;
53959;SDS011;39866;48.638;-2.020;2022-10-16T04:13:10;6.13;;;1.45;;
53959;SDS011;39866;48.638;-2.020;2022-10-16T04:15:37;6.90;;;1.70;;
53959;SDS011;39866;48.638;-2.020;2022-10-16T04:18:02;6.03;;;1.90;;
53959;SDS011;39866;48.638;-2.020;2022-10-16T04:20:28;9.52;;;1.90;;
53959;SDS011;39866;48.638;-2.020;2022-10-16T04:22:53;5.40;;;1.73;;
53959;SDS011;39866;48.638;-2.020;2022-10-16T04:25:18;8.75;;;1.85;;
53959;SDS011;39866;48.638;-2.020;2022-10-16T04:27:44;6.82;;;1.70;;
53959;SDS011;39866;48.638;-2.020;2022-10-16T04:30:09;5.07;;;1.70;;
53959;SDS011;39866;48.638;-2.020;2022-10-16T04:32:35;9.13;;;2.05;;
53959;SDS011;39866;48.638;-2.020;2022-10-16T04:35:00;10.57;;;2.03;;
53959;SDS011;39866;48.638;-2.020;2022-10-16T04:37:26;7.10;;;1.65;;
53959;SDS011;39866;48.638;-2.020;2022-10-16T04:39:52;4.28;;;1.52;;
53959;SDS011;39866;48.638;-2.020;2022-10-16T04:42:17;7.47;;;1.90;;
53959;SDS011;39866;48.638;-2.020;2022-10-16T04:44:43;4.18;;;1.42;;
53959;SDS011;39866;48.638;-2.020;2022-10-16T04:47:08;6.18;;;1.52;;
53959;SDS011;39866;48.638;-2.020;2022-10-16T04:49:34;6.40;;;1.70;;
53959;SDS011;39866;48.638;-2.020;2022-10-16T04:51:59;13.60;;;2.38;;
53959;SDS011;39866;48.638;-2.020;2022-10-16T04:54:24;6.22;;;1.90;;
53959;SDS011;39866;48.638;-2.020;2022-10-16T04:56:50;8.50;;;2.00;;
53959;SDS011;39866;48.638;-2.020;2022-10-16T04:59:17;8.57;;;2.35;;
53959;SDS011;39866;48.638;-2.020;2022-10-16T05:01:43;12.48;;;2.60;;
53959;SDS011;39866;48.638;-2.020;2022-10-16T05:04:08;8.00;;;1.95;;
53959;SDS011;39866;48.638;-2.020;2022-10-16T05:06:34;10.13;;;2.53;;
53959;SDS011;39866;48.638;-2.020;2022-10-16T05:08:59;8.60;;;2.22;;
53959;SDS011;39866;48.638;-2.020;2022-10-16T05:11:25;9.40;;;2.20;;
53959;SDS011;39866;48.638;-2.020;2022-10-16T05:13:50;7.38;;;1.88;;
53959;SDS011;39866;48.638;-2.020;2022-10-16T05:16:15;8.45;;;2.00;;
53959;SDS011;39866;48.638;-2.020;2022-10-16T05:18:41;8.18;;;2.10;;
53959;SDS011;39866;48.638;-2.020;2022-10-16T05:21:06;8.57;;;1.90;;
53959;SDS011;39866;48.638;-2.020;2022-10-16T05:23:32;6.35;;;1.80;;
53959;SDS011;39866;48.638;-2.020;2022-10-16T05:25:58;8.80;;;2.00;;
53959;SDS011;39866;48.638;-2.020;2022-10-16T05:28:25;4.78;;;1.73;;
53959;SDS011;39866;48.638;-2.020;2022-10-16T05:30:51;6.13;;;1.98;;
53959;SDS011;39866;48.638;-2.020;2022-10-16T05:33:19;7.78;;;1.90;;
53959;SDS011;39866;48.638;-2.020;2022-10-16T05:35:45;6.13;;;1.67;;
53959;SDS011;39866;48.638;-2.020;2022-10-16T05:38:10;11.27;;;2.20;;
53959;SDS011;39866;48.638;-2.020;2022-10-16T05:40:35;10.00;;;2.28;;
53959;SDS011;39866;48.638;-2.020;2022-10-16T05:43:01;6.55;;;1.80;;
53959;SDS011;39866;48.638;-2.020;2022-10-16T05:45:26;7.82;;;2.17;;
53959;SDS011;39866;48.638;-2.020;2022-10-16T05:47:51;10.25;;;1.90;;
53959;SDS011;39866;48.638;-2.020;2022-10-16T05:50:17;11.63;;;2.38;;
53959;SDS011;39866;48.638;-2.020;2022-10-16T05:52:42;8.57;;;1.92;;
53959;SDS011;39866;48.638;-2.020;2022-10-16T05:55:07;8.80;;;2.00;;
53959;SDS011;39866;48.638;-2.020;2022-10-16T05:57:33;8.32;;;2.03;;
53959;SDS011;39866;48.638;-2.020;2022-10-16T05:59:58;8.80;;;2.40;;
53959;SDS011;39866;48.638;-2.020;2022-10-16T06:02:23;11.52;;;2.25;;
53959;SDS011;39866;48.638;-2.020;2022-10-16T06:04:50;7.75;;;1.90;;
53959;SDS011;39866;48.638;-2.020;2022-10-16T06:07:18;13.43;;;2.60;;
53959;SDS011;39866;48.638;-2.020;2022-10-16T06:09:43;8.02;;;2.15;;
53959;SDS011;39866;48.638;-2.020;2022-10-16T06:12:08;6.65;;;1.80;;
53959;SDS011;39866;48.638;-2.020;2022-10-16T06:14:34;10.07;;;2.13;;
53959;SDS011;39866;48.638;-2.020;2022-10-16T06:16:59;6.88;;;2.10;;
53959;SDS011;39866;48.638;-2.020;2022-10-16T06:19:24;8.68;;;2.50;;
53959;SDS011;39866;48.638;-2.020;2022-10-16T06:21:49;8.10;;;2.38;;
53959;SDS011;39866;48.638;-2.020;2022-10-16T06:24:15;7.32;;;2.85;;
53959;SDS011;39866;48.638;-2.020;2022-10-16T06:26:40;5.90;;;2.10;;
53959;SDS011;39866;48.638;-2.020;2022-10-16T06:29:06;9.77;;;2.67;;
53959;SDS011;39866;48.638;-2.020;2022-10-16T06:31:31;11.30;;;2.90;;
53959;SDS011;39866;48.638;-2.020;2022-10-16T06:33:58;10.00;;;2.83;;
53959;SDS011;39866;48.638;-2.020;2022-10-16T06:36:24;8.35;;;2.20;;
53959;SDS011;39866;48.638;-2.020;2022-10-16T06:38:51;8.05;;;2.45;;
53959;SDS011;39866;48.638;-2.020;2022-10-16T06:41:17;6.60;;;2.10;;
53959;SDS011;39866;48.638;-2.020;2022-10-16T06:43:45;10.82;;;2.67;;
53959;SDS011;39866;48.638;-2.020;2022-10-16T06:46:11;8.80;;;2.50;;
53959;SDS011;39866;48.638;-2.020;2022-10-16T06:48:38;8.73;;;2.50;;
53959;SDS011;39866;48.638;-2.020;2022-10-16T06:51:09;9.73;;;2.45;;
53959;SDS011;39866;48.638;-2.020;2022-10-16T06:53:43;7.95;;;2.30;;
53959;SDS011;39866;48.638;-2.020;2022-10-16T06:56:11;7.50;;;2.40;;
53959;SDS011;39866;48.638;-2.020;2022-10-16T06:58:38;6.72;;;2.42;;
53959;SDS011;39866;48.638;-2.020;2022-10-16T07:01:04;10.73;;;2.40;;
53959;SDS011;39866;48.638;-2.020;2022-10-16T07:03:30;7.55;;;2.55;;
53959;SDS011;39866;48.638;-2.020;2022-10-16T07:05:55;10.20;;;2.55;;
53959;SDS011;39866;48.638;-2.020;2022-10-16T07:08:21;12.38;;;3.10;;
53959;SDS011;39866;48.638;-2.020;2022-10-16T07:10:47;6.30;;;2.53;;
53959;SDS011;39866;48.638;-2.020;2022-10-16T07:13:12;9.48;;;2.40;;
53959;SDS011;39866;48.638;-2.020;2022-10-16T07:15:39;9.75;;;2.95;;
53959;SDS011;39866;48.638;-2.020;2022-10-16T07:18:05;6.15;;;2.28;;
53959;SDS011;39866;48.638;-2.020;2022-10-16T07:20:30;11.57;;;3.00;;
53959;SDS011;39866;48.638;-2.020;2022-10-16T07:22:56;14.90;;;3.40;;
53959;SDS011;39866;48.638;-2.020;2022-10-16T07:25:21;10.07;;;3.08;;
53959;SDS011;39866;48.638;-2.020;2022-10-16T07:27:46;10.75;;;2.97;;
53959;SDS011;39866;48.638;-2.020;2022-10-16T07:30:12;8.07;;;2.70;;
53959;SDS011;39866;48.638;-2.020;2022-10-16T07:32:37;11.35;;;3.25;;
53959;SDS011;39866;48.638;-2.020;2022-10-16T07:35:02;15.13;;;3.25;;
53959;SDS011;39866;48.638;-2.020;2022-10-16T07:37:28;13.23;;;3.45;;
53959;SDS011;39866;48.638;-2.020;2022-10-16T07:39:54;11.82;;;3.08;;
53959;SDS011;39866;48.638;-2.020;2022-10-16T07:42:19;10.10;;;3.10;;
53959;SDS011;39866;48.638;-2.020;2022-10-16T07:44:45;9.68;;;3.13;;
53959;SDS011;39866;48.638;-2.020;2022-10-16T07:47:10;7.85;;;3.03;;
53959;SDS011;39866;48.638;-2.020;2022-10-16T07:49:36;8.25;;;2.97;;
53959;SDS011;39866;48.638;-2.020;2022-10-16T07:52:01;9.27;;;2.92;;
53959;SDS011;39866;48.638;-2.020;2022-10-16T07:54:26;10.73;;;3.25;;
53959;SDS011;39866;48.638;-2.020;2022-10-16T07:56:52;7.88;;;2.78;;
53959;SDS011;39866;48.638;-2.020;2022-10-16T07:59:17;7.82;;;3.25;;
53959;SDS011;39866;48.638;-2.020;2022-10-16T08:01:42;7.25;;;2.75;;
53959;SDS011;39866;48.638;-2.020;2022-10-16T08:04:08;6.85;;;2.72;;
53959;SDS011;39866;48.638;-2.020;2022-10-16T08:06:38;4.85;;;2.30;;
53959;SDS011;39866;48.638;-2.020;2022-10-16T08:09:05;8.45;;;2.60;;
53959;SDS011;39866;48.638;-2.020;2022-10-16T08:11:32;6.72;;;2.50;;
53959;SDS011;39866;48.638;-2.020;2022-10-16T08:13:57;5.57;;;2.40;;
53959;SDS011;39866;48.638;-2.020;2022-10-16T08:16:22;6.90;;;2.53;;
53959;SDS011;39866;48.638;-2.020;2022-10-16T08:18:48;11.48;;;3.75;;
53959;SDS011;39866;48.638;-2.020;2022-10-16T08:21:16;8.82;;;3.55;;
53959;SDS011;39866;48.638;-2.020;2022-10-16T08:23:43;12.00;;;3.72;;
53959;SDS011;39866;48.638;-2.020;2022-10-16T08:26:09;10.18;;;3.40;;
53959;SDS011;39866;48.638;-2.020;2022-10-16T08:28:36;11.40;;;4.40;;
53959;SDS011;39866;48.638;-2.020;2022-10-16T08:31:08;9.20;;;3.58;;
53959;SDS011;39866;48.638;-2.020;2022-10-16T08:33:36;10.70;;;4.13;;
53959;SDS011;39866;48.638;-2.020;2022-10-16T08:36:02;7.90;;;3.50;;
53959;SDS011;39866;48.638;-2.020;2022-10-16T08:38:29;8.32;;;4.10;;
53959;SDS011;39866;48.638;-2.020;2022-10-16T08:40:57;8.32;;;4.20;;
53959;SDS011;39866;48.638;-2.020;2022-10-16T08:49:21;7.78;;;4.22;;
53959;SDS011;39866;48.638;-2.020;2022-10-16T08:51:46;9.80;;;4.88;;
53959;SDS011;39866;48.638;-2.020;2022-10-16T08:56:55;6.40;;;4.10;;
53959;SDS011;39866;48.638;-2.020;2022-10-16T08:59:21;9.80;;;4.13;;
53959;SDS011;39866;48.638;-2.020;2022-10-16T09:01:47;9.55;;;4.10;;
53959;SDS011;39866;48.638;-2.020;2022-10-16T09:09:57;9.50;;;5.10;;
53959;SDS011;39866;48.638;-2.020;2022-10-16T09:12:27;7.28;;;4.50;;
53959;SDS011;39866;48.638;-2.020;2022-10-16T09:17:54;9.10;;;5.00;;
53959;SDS011;39866;48.638;-2.020;2022-10-16T09:20:29;7.60;;;3.85;;
53959;SDS011;39866;48.638;-2.020;2022-10-16T09:23:12;9.65;;;4.47;;
53959;SDS011;39866;48.638;-2.020;2022-10-16T09:25:41;11.35;;;4.35;;
53959;SDS011;39866;48.638;-2.020;2022-10-16T09:28:09;7.30;;;4.47;;
53959;SDS011;39866;48.638;-2.020;2022-10-16T09:30:35;6.25;;;4.00;;
53959;SDS011;39866;48.638;-2.020;2022-10-16T09:33:01;10.85;;;4.70;;
53959;SDS011;39866;48.638;-2.020;2022-10-16T09:35:31;8.07;;;4.50;;
53959;SDS011;39866;48.638;-2.020;2022-10-16T09:38:01;8.52;;;4.70;;
53959;SDS011;39866;48.638;-2.020;2022-10-16T09:40:30;8.20;;;4.45;;
53959;SDS011;39866;48.638;-2.020;2022-10-16T09:43:14;7.25;;;3.85;;
53959;SDS011;39866;48.638;-2.020;2022-10-16T09:46:27;7.35;;;4.18;;
53959;SDS011;39866;48.638;-2.020;2022-10-16T09:49:01;7.23;;;4.00;;
53959;SDS011;39866;48.638;-2.020;2022-10-16T09:53:54;11.07;;;3.80;;
53959;SDS011;39866;48.638;-2.020;2022-10-16T09:56:32;8.13;;;3.90;;
53959;SDS011;39866;48.638;-2.020;2022-10-16T09:59:01;9.98;;;4.15;;
53959;SDS011;39866;48.638;-2.020;2022-10-16T10:01:37;11.68;;;4.50;;
53959;SDS011;39866;48.638;-2.020;2022-10-16T10:04:05;8.82;;;4.32;;
53959;SDS011;39866;48.638;-2.020;2022-10-16T10:06:51;8.68;;;4.43;;
53959;SDS011;39866;48.638;-2.020;2022-10-16T10:09:30;9.32;;;5.57;;
53959;SDS011;39866;48.638;-2.020;2022-10-16T10:12:02;7.32;;;4.20;;
53959;SDS011;39866;48.638;-2.020;2022-10-16T10:14:43;7.55;;;3.45;;
53959;SDS011;39866;48.638;-2.020;2022-10-16T10:17:13;8.20;;;4.03;;
53959;SDS011;39866;48.638;-2.020;2022-10-16T10:27:40;6.80;;;3.55;;
53959;SDS011;39866;48.638;-2.020;2022-10-16T10:30:29;7.38;;;4.30;;
53959;SDS011;39866;48.638;-2.020;2022-10-16T10:36:22;4.47;;;3.40;;
53959;SDS011;39866;48.638;-2.020;2022-10-16T10:44:01;8.40;;;4.72;;
53959;SDS011;39866;48.638;-2.020;2022-10-16T11:00:41;4.47;;;2.67;;
53959;SDS011;39866;48.638;-2.020;2022-10-16T11:08:41;4.43;;;2.35;;
53959;SDS011;39866;48.638;-2.020;2022-10-16T11:11:16;5.10;;;2.42;;
53959;SDS011;39866;48.638;-2.020;2022-10-16T11:16:38;7.32;;;2.70;;
53959;SDS011;39866;48.638;-2.020;2022-10-16T11:19:20;6.50;;;2.40;;
53959;SDS011;39866;48.638;-2.020;2022-10-16T11:22:06;4.38;;;2.22;;
53959;SDS011;39866;48.638;-2.020;2022-10-16T11:25:02;6.05;;;3.35;;
53959;SDS011;39866;48.638;-2.020;2022-10-16T11:27:39;7.28;;;2.67;;
53959;SDS011;39866;48.638;-2.020;2022-10-16T11:30:34;7.60;;;2.70;;
53959;SDS011;39866;48.638;-2.020;2022-10-16T11:38:26;5.45;;;1.98;;
53959;SDS011;39866;48.638;-2.020;2022-10-16T11:40:56;4.70;;;1.77;;
53959;SDS011;39866;48.638;-2.020;2022-10-16T11:43:28;4.40;;;1.67;;
53959;SDS011;39866;48.638;-2.020;2022-10-16T11:46:02;4.68;;;1.58;;
53959;SDS011;39866;48.638;-2.020;2022-10-16T11:48:45;4.22;;;1.63;;
53959;SDS011;39866;48.638;-2.020;2022-10-16T11:56:39;3.65;;;1.50;;
53959;SDS011;39866;48.638;-2.020;2022-10-16T12:07:18;3.90;;;1.10;;
53959;SDS011;39866;48.638;-2.020;2022-10-16T12:09:49;2.58;;;1.00;;
53959;SDS011;39866;48.638;-2.020;2022-10-16T12:17:44;3.05;;;1.33;;
53959;SDS011;39866;48.638;-2.020;2022-10-16T12:22:41;3.83;;;1.30;;
53959;SDS011;39866;48.638;-2.020;2022-10-16T12:25:53;4.30;;;1.48;;
53959;SDS011;39866;48.638;-2.020;2022-10-16T12:28:21;5.45;;;1.33;;
53959;SDS011;39866;48.638;-2.020;2022-10-16T12:31:03;2.60;;;1.40;;
53959;SDS011;39866;48.638;-2.020;2022-10-16T12:35:56;5.68;;;1.30;;
53959;SDS011;39866;48.638;-2.020;2022-10-16T12:41:03;3.72;;;1.30;;
53959;SDS011;39866;48.638;-2.020;2022-10-16T12:43:39;6.20;;;1.23;;
53959;SDS011;39866;48.638;-2.020;2022-10-16T12:48:34;5.18;;;1.27;;
53959;SDS011;39866;48.638;-2.020;2022-10-16T12:52:01;4.55;;;1.20;;
53959;SDS011;39866;48.638;-2.020;2022-10-16T12:54:56;4.20;;;1.70;;
53959;SDS011;39866;48.638;-2.020;2022-10-16T13:22:08;2.72;;;1.40;;
53959;SDS011;39866;48.638;-2.020;2022-10-16T13:27:40;5.30;;;1.10;;
53959;SDS011;39866;48.638;-2.020;2022-10-16T13:32:48;4.22;;;1.70;;
53959;SDS011;39866;48.638;-2.020;2022-10-16T13:35:24;4.85;;;2.13;;
53959;SDS011;39866;48.638;-2.020;2022-10-16T13:37:51;3.08;;;1.30;;
53959;SDS011;39866;48.638;-2.020;2022-10-16T13:40:36;4.28;;;1.33;;
53959;SDS011;39866;48.638;-2.020;2022-10-16T13:43:01;5.22;;;1.38;;
53959;SDS011;39866;48.638;-2.020;2022-10-16T13:45:27;5.50;;;1.80;;
53959;SDS011;39866;48.638;-2.020;2022-10-16T13:48:05;2.85;;;1.60;;
53959;SDS011;39866;48.638;-2.020;2022-10-16T13:50:34;6.00;;;1.80;;
53959;SDS011;39866;48.638;-2.020;2022-10-16T13:53:06;3.67;;;1.40;;
53959;SDS011;39866;48.638;-2.020;2022-10-16T13:55:32;4.65;;;1.48;;
53959;SDS011;39866;48.638;-2.020;2022-10-16T13:58:13;3.58;;;1.50;;
53959;SDS011;39866;48.638;-2.020;2022-10-16T14:00:39;3.40;;;1.30;;
53959;SDS011;39866;48.638;-2.020;2022-10-16T14:03:17;2.45;;;1.00;;
53959;SDS011;39866;48.638;-2.020;2022-10-16T14:06:18;3.90;;;1.30;;
53959;SDS011;39866;48.638;-2.020;2022-10-16T14:08:41;5.40;;;1.30;;
53959;SDS011;39866;48.638;-2.020;2022-10-16T14:11:09;4.40;;;1.30;;
53959;SDS011;39866;48.638;-2.020;2022-10-16T14:13:36;2.72;;;1.00;;
53959;SDS011;39866;48.638;-2.020;2022-10-16T14:16:07;3.17;;;1.33;;
53959;SDS011;39866;48.638;-2.020;2022-10-16T14:18:35;3.97;;;1.50;;
53959;SDS011;39866;48.638;-2.020;2022-10-16T14:21:07;2.85;;;1.15;;
53959;SDS011;39866;48.638;-2.020;2022-10-16T14:23:39;3.60;;;1.58;;
53959;SDS011;39866;48.638;-2.020;2022-10-16T14:28:34;3.63;;;1.60;;
53959;SDS011;39866;48.638;-2.020;2022-10-16T14:31:01;3.53;;;1.60;;
53959;SDS011;39866;48.638;-2.020;2022-10-16T14:33:45;3.97;;;1.60;;
53959;SDS011;39866;48.638;-2.020;2022-10-16T14:36:11;5.15;;;1.70;;
53959;SDS011;39866;48.638;-2.020;2022-10-16T14:38:40;3.58;;;1.77;;
53959;SDS011;39866;48.638;-2.020;2022-10-16T14:41:12;2.67;;;1.50;;
53959;SDS011;39866;48.638;-2.020;2022-10-16T14:43:39;2.55;;;1.50;;
53959;SDS011;39866;48.638;-2.020;2022-10-16T14:46:08;2.92;;;1.60;;
53959;SDS011;39866;48.638;-2.020;2022-10-16T14:48:46;4.22;;;3.17;;
53959;SDS011;39866;48.638;-2.020;2022-10-16T14:51:17;2.70;;;1.45;;
53959;SDS011;39866;48.638;-2.020;2022-10-16T14:53:43;4.15;;;1.23;;
53959;SDS011;39866;48.638;-2.020;2022-10-16T14:56:14;2.88;;;1.30;;
53959;SDS011;39866;48.638;-2.020;2022-10-16T14:58:43;3.08;;;1.60;;
53959;SDS011;39866;48.638;-2.020;2022-10-16T15:01:09;3.22;;;1.77;;
53959;SDS011;39866;48.638;-2.020;2022-10-16T15:03:35;2.08;;;1.30;;
53959;SDS011;39866;48.638;-2.020;2022-10-16T15:06:01;3.00;;;1.42;;
53959;SDS011;39866;48.638;-2.020;2022-10-16T15:08:26;3.80;;;1.27;;
53959;SDS011;39866;48.638;-2.020;2022-10-16T15:10:51;2.72;;;1.17;;
53959;SDS011;39866;48.638;-2.020;2022-10-16T15:13:17;2.05;;;1.23;;
53959;SDS011;39866;48.638;-2.020;2022-10-16T15:15:44;2.25;;;1.35;;
53959;SDS011;39866;48.638;-2.020;2022-10-16T15:18:10;1.92;;;1.13;;
53959;SDS011;39866;48.638;-2.020;2022-10-16T15:20:36;2.40;;;1.00;;
53959;SDS011;39866;48.638;-2.020;2022-10-16T15:23:10;2.80;;;1.40;;
53959;SDS011;39866;48.638;-2.020;2022-10-16T15:25:59;3.38;;;1.92;;
53959;SDS011;39866;48.638;-2.020;2022-10-16T15:28:24;1.85;;;1.13;;
53959;SDS011;39866;48.638;-2.020;2022-10-16T15:30:54;3.28;;;1.20;;
53959;SDS011;39866;48.638;-2.020;2022-10-16T15:33:22;2.83;;;1.10;;
53959;SDS011;39866;48.638;-2.020;2022-10-16T15:35:50;4.20;;;1.40;;
53959;SDS011;39866;48.638;-2.020;2022-10-16T15:38:17;2.03;;;1.45;;
53959;SDS011;39866;48.638;-2.020;2022-10-16T15:40:43;1.50;;;1.20;;
53959;SDS011;39866;48.638;-2.020;2022-10-16T15:43:10;1.75;;;1.30;;
53959;SDS011;39866;48.638;-2.020;2022-10-16T15:45:36;1.85;;;1.17;;
53959;SDS011;39866;48.638;-2.020;2022-10-16T15:48:01;4.55;;;2.53;;
53959;SDS011;39866;48.638;-2.020;2022-10-16T15:50:27;3.70;;;3.00;;
53959;SDS011;39866;48.638;-2.020;2022-10-16T15:52:52;5.07;;;3.63;;
53959;SDS011;39866;48.638;-2.020;2022-10-16T15:55:18;8.02;;;3.83;;
53959;SDS011;39866;48.638;-2.020;2022-10-16T15:57:43;5.13;;;3.50;;
53959;SDS011;39866;48.638;-2.020;2022-10-16T16:00:11;3.95;;;2.50;;
53959;SDS011;39866;48.638;-2.020;2022-10-16T16:02:39;3.35;;;1.80;;
53959;SDS011;39866;48.638;-2.020;2022-10-16T16:05:05;2.45;;;1.50;;
53959;SDS011;39866;48.638;-2.020;2022-10-16T16:07:33;2.97;;;1.80;;
53959;SDS011;39866;48.638;-2.020;2022-10-16T16:09:59;2.38;;;1.30;;
53959;SDS011;39866;48.638;-2.020;2022-10-16T16:12:25;4.63;;;1.58;;
53959;SDS011;39866;48.638;-2.020;2022-10-16T16:14:51;2.70;;;1.70;;
53959;SDS011;39866;48.638;-2.020;2022-10-16T16:17:16;2.40;;;1.40;;
53959;SDS011;39866;48.638;-2.020;2022-10-16T16:19:42;3.70;;;1.80;;
53959;SDS011;39866;48.638;-2.020;2022-10-16T16:22:07;4.45;;;1.80;;
53959;SDS011;39866;48.638;-2.020;2022-10-16T16:24:33;2.92;;;2.13;;
53959;SDS011;39866;48.638;-2.020;2022-10-16T16:26:58;3.88;;;2.45;;
53959;SDS011;39866;48.638;-2.020;2022-10-16T16:29:23;5.57;;;4.28;;
53959;SDS011;39866;48.638;-2.020;2022-10-16T16:31:49;8.32;;;6.60;;
53959;SDS011;39866;48.638;-2.020;2022-10-16T16:34:14;5.50;;;3.28;;
53959;SDS011;39866;48.638;-2.020;2022-10-16T16:36:40;3.47;;;2.47;;
53959;SDS011;39866;48.638;-2.020;2022-10-16T16:39:06;3.35;;;2.60;;
53959;SDS011;39866;48.638;-2.020;2022-10-16T16:41:32;4.85;;;2.42;;
53959;SDS011;39866;48.638;-2.020;2022-10-16T16:44:04;3.72;;;3.03;;
53959;SDS011;39866;48.638;-2.020;2022-10-16T16:46:31;3.97;;;2.60;;
53959;SDS011;39866;48.638;-2.020;2022-10-16T16:48:58;3.95;;;3.00;;
53959;SDS011;39866;48.638;-2.020;2022-10-16T16:51:24;4.28;;;2.78;;
53959;SDS011;39866;48.638;-2.020;2022-10-16T16:53:50;2.53;;;2.30;;
53959;SDS011;39866;48.638;-2.020;2022-10-16T16:56:17;4.57;;;2.90;;
53959;SDS011;39866;48.638;-2.020;2022-10-16T16:58:51;4.95;;;2.70;;
53959;SDS011;39866;48.638;-2.020;2022-10-16T17:01:19;4.05;;;2.67;;
53959;SDS011;39866;48.638;-2.020;2022-10-16T17:03:45;3.33;;;2.75;;
53959;SDS011;39866;48.638;-2.020;2022-10-16T17:06:11;4.05;;;2.97;;
53959;SDS011;39866;48.638;-2.020;2022-10-16T17:08:37;6.22;;;3.53;;